KENL/ENL METAR and TAF weather

Enter ICAO airport designator
Station Type Date Time Source
KENL METAR 2022/10/20 20:30 UTC NOAA

KENL 202030Z AUTO 22009G17KT 10SM 20/00 A2986 RMK AO2 T02021003


Station Type Date Time Source
KENL Decoded METAR 2022/10/20 20:30 UTC NOAA

Centralia, Centralia Municipal Airport, IL, United States (KENL) 38-30-53N 089-05-32W
Oct 20, 2022 - 04:30 PM EDT / 2022.10.20 2030 UTC
Wind: from the SW (220 degrees) at 10 MPH (9 KT) gusting to 20 MPH (17 KT):0
Visibility: 10 mile(s):0
Temperature: 68.4 F (20.2 C)
Dew Point: 31.5 F (-0.3 C)
Relative Humidity: 25%
Pressure (altimeter): 29.86 in. Hg (1011 hPa)
ob: KENL 202030Z AUTO 22009G17KT 10SM 20/00 A2986 RMK AO2 T02021003
cycle: 20

Station Type Date Time Source
KENL TAF UTC NOAA

Error!

Example: see airport list